Baoding, China
Current Conditions -  °F | °C
As of 3:00 PM on Wednesday 22 Oct 2014 (Local Time) from ZBSJ Reporting Station
Haze Haze  
Wind Chill: 66°   Ceiling: Unl
Heat Index: 66°   Visibility: 1.8mi
Dew Point: 52°   Wind: 4mph
Humidity: 60%   Direction: 160°SSE
Pressure: 30.12"   Gusts: NA
Location:  38.87°N, 115.48°E
Report Text: ZBSJ 220700Z 16002MPS 3000 HZ NSC 19/11 Q1020 NOSIG
Loading
Personal Weather Stations






























Interactive Weather Map
Tropical Storm Tracking
New forecast layout! Learn more

10-Day Weather Forecast

Advertisements
Track Severe Weather on mobile